createdAt,value
2022-09-11T00:02:17.481Z,16.37
2022-09-11T00:04:47.805Z,16.37
2022-09-11T00:07:17.539Z,16.34
2022-09-11T00:09:47.296Z,16.30
2022-09-11T00:12:17.252Z,16.31
2022-09-11T00:14:47.007Z,16.21
2022-09-11T00:17:17.224Z,16.31
2022-09-11T00:19:46.959Z,16.13
2022-09-11T00:22:16.396Z,16.12
2022-09-11T00:24:46.154Z,16.08
2022-09-11T00:27:16.171Z,16.04
2022-09-11T00:29:46.189Z,16.11
2022-09-11T00:32:15.940Z,15.89
2022-09-11T00:34:46.747Z,15.88
2022-09-11T00:37:16.493Z,15.90
2022-09-11T00:39:47.073Z,15.96
2022-09-11T00:42:16.808Z,15.89
2022-09-11T00:44:52.301Z,15.89
2022-09-11T00:47:22.424Z,15.79
2022-09-11T00:49:55.211Z,15.79
2022-09-11T00:52:34.230Z,15.81
2022-09-11T00:55:15.851Z,15.89
2022-09-11T00:57:51.704Z,15.78
2022-09-11T01:00:22.682Z,15.72
2022-09-11T01:02:55.114Z,15.75
2022-09-11T01:05:27.078Z,15.77
2022-09-11T01:07:57.573Z,15.74
2022-09-11T01:10:35.856Z,15.79
2022-09-11T01:13:29.592Z,15.64
2022-09-11T01:16:14.191Z,15.69
2022-09-11T01:19:08.890Z,15.39
2022-09-11T01:22:04.175Z,15.39
2022-09-11T01:24:45.698Z,15.49
2022-09-11T01:27:48.153Z,15.56
2022-09-11T01:30:21.057Z,15.45
2022-09-11T01:33:02.350Z,15.34
2022-09-11T01:35:46.656Z,15.29
2022-09-11T01:38:25.071Z,15.22
2022-09-11T01:40:58.070Z,15.31
2022-09-11T01:43:30.740Z,15.38
2022-09-11T01:46:05.437Z,15.34
2022-09-11T01:48:44.221Z,15.29
2022-09-11T01:51:22.435Z,15.29
2022-09-11T01:53:54.116Z,15.23
2022-09-11T01:56:26.896Z,15.33
2022-09-11T01:59:00.065Z,15.19
2022-09-11T02:01:34.105Z,15.25
2022-09-11T02:04:16.503Z,15.23
2022-09-11T02:06:53.437Z,15.18
2022-09-11T02:09:27.997Z,15.09
2022-09-11T02:12:01.745Z,15.03
2022-09-11T02:14:40.738Z,15.12
2022-09-11T02:17:36.452Z,14.94
2022-09-11T02:20:09.538Z,14.98
2022-09-11T02:22:40.291Z,15.02
2022-09-11T02:25:10.130Z,15.05
2022-09-11T02:27:40.997Z,15.07
2022-09-11T02:30:14.332Z,15.02
2022-09-11T02:32:45.487Z,15.00
2022-09-11T02:35:16.426Z,14.94
2022-09-11T02:37:51.197Z,14.88
2022-09-11T02:40:39.449Z,14.87
2022-09-11T02:43:22.267Z,14.87
2022-09-11T02:46:03.609Z,14.88
2022-09-11T02:49:07.667Z,14.82
2022-09-11T02:52:05.895Z,14.79
2022-09-11T02:54:56.786Z,14.82
2022-09-11T02:57:35.623Z,14.82
2022-09-11T03:00:09.799Z,14.76
2022-09-11T03:02:43.145Z,14.82
2022-09-11T03:05:13.454Z,14.66
2022-09-11T03:07:43.642Z,14.64
2022-09-11T03:10:14.861Z,14.65
2022-09-11T03:12:44.601Z,14.74
2022-09-11T03:15:16.116Z,14.69
2022-09-11T03:17:46.290Z,14.57
2022-09-11T03:20:16.887Z,14.64
2022-09-11T03:22:48.878Z,14.65
2022-09-11T03:25:19.035Z,14.73
2022-09-11T03:27:48.960Z,14.67
2022-09-11T03:30:18.762Z,14.70
2022-09-11T03:32:50.480Z,14.65
2022-09-11T03:35:20.860Z,14.57
2022-09-11T03:37:50.615Z,14.56
2022-09-11T03:40:20.522Z,14.60
2022-09-11T03:42:50.327Z,14.51
2022-09-11T03:45:21.387Z,14.49
2022-09-11T03:47:51.583Z,14.57
2022-09-11T03:50:21.402Z,14.50
2022-09-11T03:52:51.668Z,14.57
2022-09-11T03:55:22.977Z,14.60
2022-09-11T03:57:52.863Z,14.45
2022-09-11T04:00:22.942Z,14.50
2022-09-11T04:02:55.556Z,14.43
2022-09-11T04:05:27.234Z,14.39
2022-09-11T04:07:57.051Z,14.44
2022-09-11T04:10:26.565Z,14.43
2022-09-11T04:12:57.421Z,14.33
2022-09-11T04:15:27.242Z,14.34
2022-09-11T04:18:00.065Z,14.35
2022-09-11T04:20:29.172Z,14.36
2022-09-11T04:22:59.088Z,14.32
2022-09-11T04:25:28.933Z,14.32
2022-09-11T04:27:58.687Z,14.32
2022-09-11T04:30:28.437Z,14.40
2022-09-11T04:32:58.910Z,14.51
2022-09-11T04:35:29.721Z,14.50
2022-09-11T04:37:59.765Z,14.63
2022-09-11T04:40:31.289Z,14.57
2022-09-11T04:43:01.581Z,14.52
2022-09-11T04:45:33.146Z,14.56
2022-09-11T04:48:03.707Z,14.63
2022-09-11T04:50:33.629Z,14.64
2022-09-11T04:53:23.151Z,14.55
2022-09-11T04:55:52.968Z,14.54
2022-09-11T04:58:22.728Z,14.50
2022-09-11T05:00:53.400Z,14.54
2022-09-11T05:03:23.252Z,14.54
2022-09-11T05:05:53.377Z,14.35
2022-09-11T05:08:26.645Z,14.35
2022-09-11T05:10:57.514Z,14.46
2022-09-11T05:13:36.074Z,14.38
2022-09-11T05:16:09.303Z,14.18
2022-09-11T05:18:41.020Z,14.33
2022-09-11T05:21:16.587Z,14.36
2022-09-11T05:23:52.076Z,14.38
2022-09-11T05:26:24.632Z,14.47
2022-09-11T05:29:00.935Z,14.55
2022-09-11T05:31:34.913Z,14.64
2022-09-11T05:34:06.745Z,14.58
2022-09-11T05:36:36.866Z,14.59
2022-09-11T05:39:06.973Z,14.91
2022-09-11T05:41:36.887Z,14.87
2022-09-11T05:44:06.752Z,14.87
2022-09-11T05:46:37.681Z,15.07
2022-09-11T05:49:08.537Z,15.07
2022-09-11T05:51:39.811Z,14.92
2022-09-11T05:54:09.732Z,15.02
2022-09-11T05:56:39.602Z,15.02
2022-09-11T05:59:14.689Z,15.15
2022-09-11T06:01:47.447Z,15.22
2022-09-11T06:04:18.921Z,15.41
2022-09-11T06:06:50.001Z,15.31
2022-09-11T06:09:20.183Z,15.31
2022-09-11T06:11:50.914Z,15.33
2022-09-11T06:14:21.406Z,15.26
2022-09-11T06:16:51.879Z,15.33
2022-09-11T06:19:21.801Z,15.69
2022-09-11T06:21:51.967Z,15.36
2022-09-11T06:24:23.423Z,15.50
2022-09-11T06:26:53.552Z,15.40
2022-09-11T06:29:23.895Z,15.45
2022-09-11T06:31:54.080Z,15.70
2022-09-11T06:34:25.327Z,15.81
2022-09-11T06:36:56.023Z,15.81
2022-09-11T06:39:26.536Z,15.89
2022-09-11T06:41:56.699Z,15.85
2022-09-11T06:44:28.152Z,15.91
2022-09-11T06:47:00.068Z,15.76
2022-09-11T06:49:30.347Z,16.06
2022-09-11T06:52:14.839Z,16.06
2022-09-11T06:54:46.290Z,16.26
2022-09-11T06:57:17.208Z,16.16
2022-09-11T06:59:47.103Z,16.15
2022-09-11T07:02:18.162Z,16.41
2022-09-11T07:04:48.696Z,16.44
2022-09-11T07:07:19.510Z,16.47
2022-09-11T07:09:49.918Z,16.76
2022-09-11T07:12:21.473Z,16.74
2022-09-11T07:14:51.704Z,16.50
2022-09-11T07:17:21.521Z,16.74
2022-09-11T07:19:52.711Z,16.72
2022-09-11T07:22:22.582Z,16.86
2022-09-11T07:24:55.527Z,16.97
2022-09-11T07:27:25.418Z,16.97
2022-09-11T07:29:55.819Z,17.03
2022-09-11T07:32:27.027Z,17.10
2022-09-11T07:34:56.917Z,17.20
2022-09-11T07:37:26.649Z,17.19
2022-09-11T07:39:58.099Z,17.42
2022-09-11T07:42:29.880Z,17.35
2022-09-11T07:44:59.702Z,17.41
2022-09-11T07:47:29.353Z,17.75
2022-09-11T07:49:59.571Z,17.71
2022-09-11T07:52:29.350Z,17.52
2022-09-11T07:55:01.304Z,17.86
2022-09-11T07:57:32.484Z,17.94
2022-09-11T08:00:04.924Z,18.27
2022-09-11T08:02:37.164Z,18.53
2022-09-11T08:05:07.915Z,18.00
2022-09-11T08:07:38.207Z,18.17
2022-09-11T08:10:26.718Z,18.40
2022-09-11T08:12:42.961Z,18.34
2022-09-11T08:15:14.052Z,18.69
2022-09-11T08:17:44.161Z,18.72
2022-09-11T08:20:14.048Z,18.75
2022-09-11T08:22:44.088Z,18.36
2022-09-11T08:25:13.808Z,18.35
2022-09-11T08:27:43.860Z,18.67
2022-09-11T08:30:15.317Z,18.59
2022-09-11T08:32:45.516Z,18.73
2022-09-11T08:35:15.498Z,18.66
2022-09-11T08:37:45.550Z,18.91
2022-09-11T08:40:15.789Z,19.40
2022-09-11T08:42:47.302Z,19.25
2022-09-11T08:45:20.758Z,19.27
2022-09-11T08:47:56.950Z,19.52
2022-09-11T08:50:30.072Z,19.52
2022-09-11T08:53:01.387Z,19.63
2022-09-11T08:55:41.361Z,19.57
2022-09-11T08:58:39.018Z,19.59
2022-09-11T09:01:09.299Z,19.77
2022-09-11T09:03:59.947Z,20.22
2022-09-11T09:06:53.930Z,20.41
2022-09-11T09:09:44.463Z,20.65
2022-09-11T09:12:20.784Z,20.79
2022-09-11T09:15:04.821Z,21.43
2022-09-11T09:17:37.805Z,21.46
2022-09-11T09:20:23.149Z,21.53
2022-09-11T09:22:55.992Z,21.10
2022-09-11T09:25:27.611Z,21.31
2022-09-11T09:28:10.023Z,21.50
2022-09-11T09:31:00.682Z,21.24
2022-09-11T09:33:37.608Z,21.77
2022-09-11T09:36:17.378Z,21.87
2022-09-11T09:38:48.155Z,21.86
2022-09-11T09:41:30.364Z,21.48
2022-09-11T09:44:19.518Z,21.53
2022-09-11T09:46:51.208Z,21.47
2022-09-11T09:49:35.907Z,22.57
2022-09-11T09:52:20.296Z,22.37
2022-09-11T09:55:04.735Z,22.42
2022-09-11T09:57:37.543Z,22.04
2022-09-11T10:00:11.840Z,21.99
2022-09-11T10:02:53.253Z,21.69
2022-09-11T10:05:35.059Z,21.52
2022-09-11T10:08:10.906Z,21.44
2022-09-11T10:10:41.911Z,21.04
2022-09-11T10:13:22.001Z,21.04
2022-09-11T10:15:54.308Z,21.15
2022-09-11T10:18:40.085Z,21.02
2022-09-11T10:21:18.749Z,20.89
2022-09-11T10:24:02.448Z,20.88
2022-09-11T10:26:47.756Z,20.87
2022-09-11T10:29:20.984Z,20.90
2022-09-11T10:31:56.439Z,21.03
2022-09-11T10:34:29.205Z,21.07
2022-09-11T10:37:05.073Z,20.77
2022-09-11T10:39:37.523Z,21.03
2022-09-11T10:42:16.728Z,21.41
2022-09-11T10:44:48.076Z,21.32
2022-09-11T10:47:29.700Z,21.18
2022-09-11T10:50:20.438Z,21.03
2022-09-11T10:53:01.810Z,21.83
2022-09-11T10:55:44.869Z,21.83
2022-09-11T10:58:26.809Z,22.06
2022-09-11T11:00:56.668Z,22.09
2022-09-11T11:03:28.992Z,22.07
2022-09-11T11:06:34.940Z,22.47
2022-09-11T11:09:31.239Z,22.81
2022-09-11T11:12:12.641Z,23.03
2022-09-11T11:14:51.262Z,23.27
2022-09-11T11:17:35.985Z,23.40
2022-09-11T11:20:14.156Z,23.50
2022-09-11T11:23:01.272Z,23.52
2022-09-11T11:25:40.939Z,23.83
2022-09-11T11:28:14.454Z,23.83
2022-09-11T11:31:03.449Z,24.04
2022-09-11T11:33:53.813Z,24.04
2022-09-11T11:36:32.289Z,24.24
2022-09-11T11:39:19.999Z,24.60
2022-09-11T11:41:52.790Z,24.66
2022-09-11T11:44:40.470Z,24.57
2022-09-11T11:47:11.350Z,25.02
2022-09-11T11:49:52.882Z,24.76
2022-09-11T11:52:37.144Z,24.99
2022-09-11T11:55:26.169Z,24.88
2022-09-11T11:58:13.953Z,24.63
2022-09-11T12:00:46.742Z,24.43
2022-09-11T12:03:37.493Z,24.73
2022-09-11T12:06:08.547Z,25.29
2022-09-11T12:08:46.210Z,25.29
2022-09-11T12:11:19.222Z,25.37
2022-09-11T12:13:49.493Z,25.34
2022-09-11T12:16:34.760Z,25.25
2022-09-11T12:19:19.828Z,25.37
2022-09-11T12:21:58.504Z,25.37
2022-09-11T12:24:47.531Z,25.43
2022-09-11T12:27:39.266Z,25.91
2022-09-11T12:30:12.017Z,25.51
2022-09-11T12:32:52.461Z,25.95
2022-09-11T12:35:38.069Z,26.17
2022-09-11T12:38:12.468Z,25.86
2022-09-11T12:40:57.257Z,25.96
2022-09-11T12:43:38.395Z,25.52
2022-09-11T12:46:10.949Z,25.31
2022-09-11T12:49:00.233Z,25.02
2022-09-11T12:51:24.005Z,24.71
2022-09-11T12:53:58.645Z,24.40
2022-09-11T12:56:31.242Z,24.37
2022-09-11T12:59:04.735Z,24.98
2022-09-11T13:01:40.227Z,25.37
2022-09-11T13:04:13.658Z,26.23
2022-09-11T13:06:56.105Z,26.23
2022-09-11T13:09:37.699Z,26.04
2022-09-11T13:12:26.405Z,25.01
2022-09-11T13:14:59.241Z,24.69
2022-09-11T13:17:31.136Z,24.79
2022-09-11T13:20:09.852Z,25.12
2022-09-11T13:22:39.570Z,25.73
2022-09-11T13:25:19.845Z,25.95
2022-09-11T13:27:51.508Z,26.41
2022-09-11T13:30:23.953Z,26.65
2022-09-11T13:33:08.263Z,27.01
2022-09-11T13:35:41.417Z,26.32
2022-09-11T13:38:17.002Z,26.66
2022-09-11T13:40:52.277Z,26.11
2022-09-11T13:43:29.253Z,25.96
2022-09-11T13:46:18.590Z,25.10
2022-09-11T13:48:50.870Z,25.10
2022-09-11T13:51:29.598Z,25.23
2022-09-11T13:54:11.677Z,25.40
2022-09-11T13:56:48.256Z,25.54
2022-09-11T13:59:46.110Z,25.99
2022-09-11T14:02:27.865Z,26.29
2022-09-11T14:05:09.561Z,26.37
2022-09-11T14:08:08.651Z,26.74
2022-09-11T14:10:47.317Z,26.45
2022-09-11T14:13:37.856Z,26.39
2022-09-11T14:16:10.924Z,26.09
2022-09-11T14:19:04.343Z,26.07
2022-09-11T14:21:36.451Z,26.34
2022-09-11T14:24:09.728Z,25.99
2022-09-11T14:26:42.989Z,25.91
2022-09-11T14:32:36.714Z,26.19
2022-09-11T14:35:10.547Z,26.82
2022-09-11T14:37:45.849Z,26.68
2022-09-11T14:40:20.183Z,26.72
2022-09-11T14:42:50.120Z,26.63
2022-09-11T14:45:22.891Z,26.72
2022-09-11T14:47:53.338Z,26.64
2022-09-11T14:50:24.490Z,26.74
2022-09-11T14:52:53.946Z,26.56
2022-09-11T14:55:23.750Z,26.56
2022-09-11T14:57:53.488Z,26.90
2022-09-11T15:00:23.292Z,27.05
2022-09-11T15:02:53.792Z,26.92
2022-09-11T15:05:24.544Z,26.69
2022-09-11T15:07:54.281Z,26.73
2022-09-11T15:10:23.771Z,26.70
2022-09-11T15:12:54.980Z,26.80
2022-09-11T15:15:27.413Z,26.80
2022-09-11T15:17:57.453Z,26.93
2022-09-11T15:20:27.654Z,26.92
2022-09-11T15:22:57.647Z,26.61
2022-09-11T15:25:27.538Z,26.95
2022-09-11T15:27:57.044Z,26.61
2022-09-11T15:30:27.778Z,26.64
2022-09-11T15:32:57.575Z,26.51
2022-09-11T15:35:32.651Z,26.73
2022-09-11T15:37:59.918Z,26.74
2022-09-11T15:40:29.513Z,26.17
2022-09-11T15:42:59.339Z,25.99
2022-09-11T15:45:29.108Z,25.99
2022-09-11T15:48:02.814Z,25.93
2022-09-11T15:50:32.473Z,25.93
2022-09-11T15:53:02.452Z,26.17
2022-09-11T15:55:32.176Z,26.01
2022-09-11T15:58:02.089Z,25.78
2022-09-11T16:00:31.989Z,25.78
2022-09-11T16:03:02.104Z,25.60
2022-09-11T16:05:32.245Z,25.30
2022-09-11T16:08:02.269Z,25.30
2022-09-11T16:10:33.579Z,25.53
2022-09-11T16:13:03.882Z,25.48
2022-09-11T16:15:35.446Z,24.88
2022-09-11T16:18:09.668Z,24.88
2022-09-11T16:20:43.831Z,25.11
2022-09-11T16:23:13.681Z,25.02
2022-09-11T16:25:44.583Z,24.95
2022-09-11T16:28:14.076Z,24.80
2022-09-11T16:30:46.660Z,24.91
2022-09-11T16:33:14.937Z,24.91
2022-09-11T16:35:45.204Z,25.05
2022-09-11T16:38:14.951Z,24.78
2022-09-11T16:40:44.679Z,24.67
2022-09-11T16:43:21.391Z,24.40
2022-09-11T16:45:52.663Z,24.38
2022-09-11T16:48:24.048Z,24.46
2022-09-11T16:50:55.213Z,24.29
2022-09-11T16:53:27.283Z,24.06
2022-09-11T16:55:57.201Z,24.24
2022-09-11T16:58:26.669Z,24.12
2022-09-11T17:00:56.548Z,24.14
2022-09-11T17:03:26.587Z,23.98
2022-09-11T17:05:56.787Z,23.63
2022-09-11T17:08:26.645Z,23.55
2022-09-11T17:10:59.235Z,23.27
2022-09-11T17:13:29.320Z,23.11
2022-09-11T17:16:09.943Z,23.12
2022-09-11T17:18:40.153Z,23.03
2022-09-11T17:21:11.836Z,22.78
2022-09-11T17:23:41.746Z,22.87
2022-09-11T17:26:16.625Z,22.86
2022-09-11T17:28:48.257Z,22.83
2022-09-11T17:31:19.519Z,22.61
2022-09-11T17:33:50.471Z,22.61
2022-09-11T17:36:22.337Z,22.63
2022-09-11T17:38:52.903Z,22.59
2022-09-11T17:41:23.021Z,22.54
2022-09-11T17:43:53.122Z,22.42
2022-09-11T17:46:24.095Z,22.45
2022-09-11T17:48:53.854Z,22.42
2022-09-11T17:51:26.311Z,22.27
2022-09-11T17:53:58.570Z,22.12
2022-09-11T17:56:33.178Z,22.14
2022-09-11T17:59:03.179Z,22.10
2022-09-11T18:01:33.002Z,21.86
2022-09-11T18:04:02.876Z,21.78
2022-09-11T18:06:36.895Z,21.86
2022-09-11T18:09:19.623Z,21.95
2022-09-11T18:11:53.212Z,21.68
2022-09-11T18:14:24.191Z,21.54
2022-09-11T18:16:53.937Z,21.47
2022-09-11T18:19:24.215Z,21.47
2022-09-11T18:21:53.969Z,21.11
2022-09-11T18:24:24.551Z,21.11
2022-09-11T18:27:00.522Z,21.07
2022-09-11T18:29:27.347Z,20.84
2022-09-11T18:31:57.156Z,20.79
2022-09-11T18:34:28.342Z,20.85
2022-09-11T18:36:59.888Z,20.74
2022-09-11T18:39:29.465Z,20.61
2022-09-11T18:42:00.072Z,20.48
2022-09-11T18:44:30.656Z,20.35
2022-09-11T18:47:01.169Z,20.23
2022-09-11T18:49:30.910Z,20.36
2022-09-11T18:52:00.699Z,20.25
2022-09-11T18:54:30.905Z,20.25
2022-09-11T18:57:00.649Z,20.11
2022-09-11T18:59:30.129Z,20.16
2022-09-11T19:02:00.717Z,20.10
2022-09-11T19:04:30.666Z,20.11
2022-09-11T19:07:00.570Z,20.13
2022-09-11T19:09:30.319Z,20.05
2022-09-11T19:12:00.846Z,19.87
2022-09-11T19:14:30.982Z,19.81
2022-09-11T19:17:00.735Z,19.79
2022-09-11T19:19:30.486Z,19.73
2022-09-11T19:22:00.453Z,19.60
2022-09-11T19:24:30.495Z,19.56
2022-09-11T19:27:00.420Z,19.46
2022-09-11T19:29:30.239Z,19.38
2022-09-11T19:32:00.885Z,19.37
2022-09-11T19:34:34.055Z,19.45
2022-09-11T19:37:02.855Z,19.52
2022-09-11T19:39:32.676Z,19.52
2022-09-11T19:42:02.886Z,19.37
2022-09-11T19:44:34.264Z,19.32
2022-09-11T19:47:04.434Z,19.32
2022-09-11T19:49:34.255Z,19.25
2022-09-11T19:52:08.025Z,19.03
2022-09-11T19:54:37.956Z,18.96
2022-09-11T19:57:08.258Z,19.03
2022-09-11T19:59:38.272Z,19.02
2022-09-11T20:02:11.979Z,18.94
2022-09-11T20:04:41.812Z,19.01
2022-09-11T20:07:11.644Z,18.94
2022-09-11T20:09:42.695Z,18.91
2022-09-11T20:12:13.313Z,18.84
2022-09-11T20:14:43.063Z,18.85
2022-09-11T20:17:12.984Z,18.92
2022-09-11T20:19:44.377Z,18.84
2022-09-11T20:22:14.115Z,18.73
2022-09-11T20:24:43.854Z,18.61
2022-09-11T20:27:13.607Z,18.60
2022-09-11T20:29:43.478Z,18.53
2022-09-11T20:32:15.046Z,18.45
2022-09-11T20:34:44.813Z,18.37
2022-09-11T20:37:14.552Z,18.30
2022-09-11T20:39:44.320Z,18.27
2022-09-11T20:42:14.126Z,18.22
2022-09-11T20:44:45.270Z,18.31
2022-09-11T20:47:15.183Z,18.42
2022-09-11T20:49:44.934Z,18.27
2022-09-11T20:52:15.339Z,18.22
2022-09-11T20:54:45.266Z,18.30
2022-09-11T20:57:15.019Z,18.07
2022-09-11T20:59:44.751Z,17.95
2022-09-11T21:02:14.843Z,17.98
2022-09-11T21:04:45.800Z,18.04
2022-09-11T21:07:15.632Z,17.97
2022-09-11T21:09:46.117Z,17.95
2022-09-11T21:12:15.580Z,17.96
2022-09-11T21:14:45.704Z,18.05
2022-09-11T21:17:15.533Z,17.87
2022-09-11T21:19:45.275Z,17.86
2022-09-11T21:22:15.032Z,17.77
2022-09-11T21:24:44.769Z,17.82
2022-09-11T21:27:14.513Z,17.73
2022-09-11T21:29:44.254Z,17.72
2022-09-11T21:32:13.918Z,17.66
2022-09-11T21:34:43.687Z,17.63
2022-09-11T21:37:13.624Z,17.74
2022-09-11T21:39:43.111Z,17.66
2022-09-11T21:42:12.528Z,17.55
2022-09-11T21:44:42.256Z,17.59
2022-09-11T21:47:12.006Z,17.53
2022-09-11T21:49:41.763Z,17.39
2022-09-11T21:52:11.983Z,17.23
2022-09-11T21:54:41.730Z,17.12
2022-09-11T21:57:11.762Z,17.20
2022-09-11T21:59:41.507Z,17.10
2022-09-11T22:02:12.054Z,17.07
2022-09-11T22:04:41.819Z,17.00
2022-09-11T22:07:12.213Z,17.11
2022-09-11T22:09:42.623Z,17.02
2022-09-11T22:12:12.312Z,17.04
2022-09-11T22:14:43.700Z,17.14
2022-09-11T22:17:13.757Z,16.99
2022-09-11T22:19:46.208Z,16.91
2022-09-11T22:22:16.028Z,16.98
2022-09-11T22:24:45.848Z,17.03
2022-09-11T22:27:15.296Z,17.13
2022-09-11T22:29:47.149Z,16.87
2022-09-11T22:32:17.162Z,16.82
2022-09-11T22:34:46.907Z,16.87
2022-09-11T22:37:16.721Z,16.87
2022-09-11T22:39:47.002Z,16.79
2022-09-11T22:42:16.940Z,16.78
2022-09-11T22:44:46.680Z,16.85
2022-09-11T22:47:16.702Z,16.82
2022-09-11T22:49:46.754Z,16.78
2022-09-11T22:52:16.486Z,16.73
2022-09-11T22:54:47.479Z,16.79
2022-09-11T22:57:17.287Z,16.67
2022-09-11T22:59:47.164Z,16.65
2022-09-11T23:02:16.977Z,16.77
2022-09-11T23:04:48.374Z,16.63
2022-09-11T23:07:18.279Z,16.63
2022-09-11T23:09:48.036Z,16.82
2022-09-11T23:12:17.864Z,16.71
2022-09-11T23:14:47.598Z,16.58
2022-09-11T23:17:17.679Z,16.64
2022-09-11T23:19:48.165Z,16.60
2022-09-11T23:22:17.606Z,16.50
2022-09-11T23:24:47.686Z,16.61
2022-09-11T23:27:17.736Z,16.63
2022-09-11T23:29:47.541Z,16.58
2022-09-11T23:32:17.275Z,16.38
2022-09-11T23:34:47.022Z,16.50
2022-09-11T23:37:16.755Z,16.44
2022-09-11T23:39:46.872Z,16.45
2022-09-11T23:42:16.250Z,16.35
2022-09-11T23:44:46.027Z,16.48
2022-09-11T23:47:15.830Z,16.25
2022-09-11T23:49:45.595Z,16.37
2022-09-11T23:52:15.637Z,16.39
2022-09-11T23:54:45.388Z,16.38
2022-09-11T23:57:15.118Z,16.32
2022-09-11T23:59:44.864Z,16.37
